createdAt,value
2022-07-26T00:02:26.975Z,69.80
2022-07-26T00:04:54.626Z,70.50
2022-07-26T00:07:22.236Z,70.60
2022-07-26T00:09:49.847Z,70.70
2022-07-26T00:12:17.471Z,71.10
2022-07-26T00:14:45.019Z,71.30
2022-07-26T00:17:12.584Z,71.20
2022-07-26T00:19:40.124Z,71.50
2022-07-26T00:22:28.039Z,71.60
2022-07-26T00:24:56.047Z,71.90
2022-07-26T00:27:23.614Z,71.70
2022-07-26T00:29:53.262Z,70.90
2022-07-26T00:32:20.841Z,70.80
2022-07-26T00:34:48.441Z,71.30
2022-07-26T00:37:20.113Z,71.80
2022-07-26T00:39:49.137Z,71.90
2022-07-26T00:42:17.128Z,71.60
2022-07-26T00:44:46.538Z,71.60
2022-07-26T00:47:14.822Z,71.60
2022-07-26T00:49:42.756Z,71.50
2022-07-26T00:52:12.237Z,71.10
2022-07-26T00:54:43.889Z,71.00
2022-07-26T00:57:13.095Z,71.00
2022-07-26T00:59:41.652Z,71.50
2022-07-26T01:02:37.972Z,71.20
2022-07-26T01:05:06.943Z,71.10
2022-07-26T01:07:36.073Z,71.10
2022-07-26T01:10:06.653Z,70.90
2022-07-26T01:12:34.410Z,70.80
2022-07-26T01:15:02.007Z,71.50
2022-07-26T01:17:29.647Z,71.20
2022-07-26T01:19:57.119Z,70.90
2022-07-26T01:22:24.648Z,71.20
2022-07-26T01:24:52.402Z,71.00
2022-07-26T01:27:20.342Z,71.00
2022-07-26T01:29:47.831Z,71.20
2022-07-26T01:32:15.340Z,71.40
2022-07-26T01:34:42.931Z,71.40
2022-07-26T01:37:10.621Z,71.90
2022-07-26T01:39:38.455Z,71.60
2022-07-26T01:42:06.143Z,71.50
2022-07-26T01:44:33.698Z,72.10
2022-07-26T01:47:01.203Z,71.90
2022-07-26T01:49:28.779Z,72.10
2022-07-26T01:51:56.454Z,71.90
2022-07-26T01:54:24.628Z,72.30
2022-07-26T01:56:52.279Z,72.60
2022-07-26T01:59:20.005Z,72.80
2022-07-26T02:01:47.699Z,72.70
2022-07-26T02:04:33.793Z,72.90
2022-07-26T02:07:05.260Z,73.10
2022-07-26T02:09:40.861Z,73.30
2022-07-26T02:12:08.737Z,73.70
2022-07-26T02:14:36.327Z,74.10
2022-07-26T02:17:03.994Z,74.20
2022-07-26T02:19:32.218Z,74.20
2022-07-26T02:21:59.785Z,74.30
2022-07-26T02:24:31.048Z,74.20
2022-07-26T02:26:59.985Z,73.90
2022-07-26T02:29:28.715Z,73.50
2022-07-26T02:31:57.386Z,73.50
2022-07-26T02:34:25.490Z,74.00
2022-07-26T02:36:53.131Z,73.90
2022-07-26T02:39:21.284Z,74.10
2022-07-26T02:41:49.253Z,74.00
2022-07-26T02:44:16.924Z,74.10
2022-07-26T02:46:44.490Z,74.50
2022-07-26T02:49:12.109Z,74.80
2022-07-26T02:51:39.713Z,75.10
2022-07-26T02:54:07.452Z,75.10
2022-07-26T02:56:35.106Z,74.80
2022-07-26T02:59:02.644Z,74.90
2022-07-26T03:01:30.835Z,74.90
2022-07-26T03:03:58.373Z,75.20
2022-07-26T03:06:25.936Z,75.60
2022-07-26T03:08:53.578Z,75.70
2022-07-26T03:11:21.128Z,75.80
2022-07-26T03:13:48.932Z,76.00
2022-07-26T03:16:20.370Z,76.10
2022-07-26T03:18:50.324Z,76.30
2022-07-26T03:21:17.872Z,76.20
2022-07-26T03:23:45.393Z,76.00
2022-07-26T03:26:12.913Z,75.70
2022-07-26T03:28:42.524Z,75.70
2022-07-26T03:31:10.658Z,76.00
2022-07-26T03:33:38.736Z,76.20
2022-07-26T03:36:06.917Z,75.90
2022-07-26T03:38:39.274Z,75.90
2022-07-26T03:41:06.940Z,75.80
2022-07-26T03:43:36.357Z,76.00
2022-07-26T03:46:04.240Z,77.30
2022-07-26T03:48:31.846Z,76.90
2022-07-26T03:51:00.191Z,76.70
2022-07-26T03:53:27.730Z,76.50
2022-07-26T03:56:14.415Z,76.10
2022-07-26T03:58:42.724Z,76.00
2022-07-26T04:01:10.278Z,76.50
2022-07-26T04:03:37.961Z,75.40
2022-07-26T04:06:05.949Z,75.50
2022-07-26T04:08:33.498Z,75.60
2022-07-26T04:11:01.008Z,75.50
2022-07-26T04:13:28.526Z,75.10
2022-07-26T04:15:56.008Z,74.80
2022-07-26T04:18:24.796Z,75.10
2022-07-26T04:20:52.625Z,74.50
2022-07-26T04:23:20.200Z,74.90
2022-07-26T04:25:47.765Z,74.50
2022-07-26T04:28:15.352Z,74.00
2022-07-26T04:30:43.646Z,73.60
2022-07-26T04:33:11.235Z,73.10
2022-07-26T04:35:38.805Z,72.00
2022-07-26T04:38:06.346Z,72.00
2022-07-26T04:40:33.863Z,71.50
2022-07-26T04:43:02.409Z,71.20
2022-07-26T04:45:30.528Z,70.80
2022-07-26T04:47:58.527Z,70.80
2022-07-26T04:50:28.159Z,70.50
2022-07-26T04:52:56.125Z,70.80
2022-07-26T04:55:24.145Z,70.70
2022-07-26T04:57:51.995Z,70.40
2022-07-26T05:00:24.237Z,70.40
2022-07-26T05:02:59.563Z,70.10
2022-07-26T05:05:29.998Z,69.90
2022-07-26T05:08:00.224Z,70.00
2022-07-26T05:10:35.242Z,69.50
2022-07-26T05:13:05.654Z,69.50
2022-07-26T05:15:35.893Z,69.20
2022-07-26T05:18:10.283Z,68.90
2022-07-26T05:20:38.852Z,68.90
2022-07-26T05:23:06.569Z,67.80
2022-07-26T05:25:34.524Z,67.60
2022-07-26T05:28:02.142Z,67.60
2022-07-26T05:30:30.147Z,67.20
2022-07-26T05:32:57.790Z,67.00
2022-07-26T05:35:25.357Z,67.30
2022-07-26T05:37:52.953Z,67.00
2022-07-26T05:40:20.592Z,67.40
2022-07-26T05:42:48.437Z,67.40
2022-07-26T05:45:16.054Z,67.50
2022-07-26T05:47:43.599Z,66.60
2022-07-26T05:50:13.591Z,66.70
2022-07-26T05:52:41.117Z,65.40
2022-07-26T05:55:09.259Z,65.10
2022-07-26T05:57:36.865Z,65.70
2022-07-26T06:00:05.189Z,65.90
2022-07-26T06:02:40.803Z,65.10
2022-07-26T06:05:08.861Z,65.80
2022-07-26T06:07:36.455Z,65.10
2022-07-26T06:10:04.697Z,64.50
2022-07-26T06:12:32.358Z,63.90
2022-07-26T06:14:59.851Z,62.90
2022-07-26T06:17:30.484Z,63.00
2022-07-26T06:19:58.936Z,62.50
2022-07-26T06:22:26.813Z,62.10
2022-07-26T06:24:54.310Z,61.50
2022-07-26T06:27:21.826Z,61.00
2022-07-26T06:29:49.423Z,61.90
2022-07-26T06:32:16.981Z,61.80
2022-07-26T06:34:44.580Z,62.40
2022-07-26T06:37:12.116Z,61.50
2022-07-26T06:39:39.641Z,60.00
2022-07-26T06:42:07.279Z,60.30
2022-07-26T06:44:35.236Z,60.30
2022-07-26T06:47:02.818Z,61.50
2022-07-26T06:49:30.482Z,60.90
2022-07-26T06:51:58.053Z,60.00
2022-07-26T06:54:25.645Z,59.80
2022-07-26T06:56:53.205Z,59.90
2022-07-26T06:59:20.701Z,59.30
2022-07-26T07:01:57.674Z,59.80
2022-07-26T07:04:32.644Z,58.50
2022-07-26T07:07:06.005Z,58.80
2022-07-26T07:09:35.096Z,59.10
2022-07-26T07:12:09.454Z,58.90
2022-07-26T07:14:39.323Z,58.10
2022-07-26T07:17:12.918Z,57.90
2022-07-26T07:19:42.545Z,58.90
2022-07-26T07:22:12.292Z,56.70
2022-07-26T07:24:41.478Z,56.40
2022-07-26T07:27:10.484Z,55.70
2022-07-26T07:29:41.378Z,55.40
2022-07-26T07:32:18.469Z,54.50
2022-07-26T07:34:49.404Z,54.50
2022-07-26T07:37:18.356Z,55.60
2022-07-26T07:39:48.948Z,54.70
2022-07-26T07:42:19.299Z,53.90
2022-07-26T07:44:47.543Z,54.00
2022-07-26T07:47:15.307Z,53.30
2022-07-26T07:49:43.246Z,53.30
2022-07-26T07:52:10.853Z,53.20
2022-07-26T07:54:38.515Z,52.60
2022-07-26T07:57:06.194Z,53.50
2022-07-26T07:59:33.844Z,52.60
2022-07-26T08:02:07.239Z,53.80
2022-07-26T08:04:35.092Z,52.40
2022-07-26T08:07:02.716Z,51.50
2022-07-26T08:09:30.361Z,51.80
2022-07-26T08:12:02.270Z,52.30
2022-07-26T08:14:30.214Z,52.00
2022-07-26T08:16:57.921Z,53.10
2022-07-26T08:19:28.764Z,52.20
2022-07-26T08:22:11.038Z,49.90
2022-07-26T08:24:39.487Z,49.80
2022-07-26T08:27:07.458Z,50.70
2022-07-26T08:29:35.295Z,50.20
2022-07-26T08:32:03.013Z,50.00
2022-07-26T08:34:31.093Z,47.90
2022-07-26T08:37:16.073Z,47.10
2022-07-26T08:39:46.672Z,47.00
2022-07-26T08:42:25.101Z,46.30
2022-07-26T08:44:53.028Z,47.00
2022-07-26T08:47:37.508Z,46.10
2022-07-26T08:50:06.199Z,46.60
2022-07-26T08:52:34.022Z,47.00
2022-07-26T08:55:03.213Z,47.90
2022-07-26T08:57:30.794Z,47.50
2022-07-26T09:00:18.142Z,47.50
2022-07-26T09:02:46.385Z,46.90
2022-07-26T09:05:14.898Z,46.70
2022-07-26T09:07:45.539Z,47.00
2022-07-26T09:10:16.278Z,45.80
2022-07-26T09:12:44.616Z,45.80
2022-07-26T09:15:27.408Z,46.50
2022-07-26T09:17:57.277Z,47.80
2022-07-26T09:20:30.122Z,46.30
2022-07-26T09:23:06.668Z,47.20
2022-07-26T09:25:43.169Z,46.20
2022-07-26T09:28:31.320Z,46.50
2022-07-26T09:31:03.161Z,46.00
2022-07-26T09:33:46.955Z,46.30
2022-07-26T09:36:15.485Z,45.70
2022-07-26T09:38:46.287Z,47.40
2022-07-26T09:41:35.476Z,46.50
2022-07-26T09:44:05.617Z,46.60
2022-07-26T09:46:35.593Z,48.00
2022-07-26T09:49:21.143Z,47.90
2022-07-26T09:51:55.246Z,46.50
2022-07-26T09:54:29.116Z,45.60
2022-07-26T09:56:57.459Z,45.60
2022-07-26T09:59:26.254Z,45.70
2022-07-26T10:01:55.469Z,46.00
2022-07-26T10:04:23.454Z,47.50
2022-07-26T10:06:51.866Z,47.30
2022-07-26T10:09:20.532Z,46.60
2022-07-26T10:11:56.584Z,46.70
2022-07-26T10:14:33.526Z,47.40
2022-07-26T10:17:22.108Z,46.90
2022-07-26T10:19:57.648Z,46.40
2022-07-26T10:22:45.554Z,46.20
2022-07-26T10:25:19.336Z,47.50
2022-07-26T10:27:48.199Z,47.20
2022-07-26T10:30:19.049Z,48.30
2022-07-26T10:32:55.375Z,47.50
2022-07-26T10:35:42.158Z,47.10
2022-07-26T10:38:29.055Z,47.30
2022-07-26T10:41:06.363Z,46.90
2022-07-26T10:43:42.542Z,47.10
2022-07-26T10:46:16.898Z,48.00
2022-07-26T10:49:06.373Z,47.40
2022-07-26T10:51:39.974Z,46.60
2022-07-26T10:54:12.595Z,46.50
2022-07-26T10:56:40.824Z,47.80
2022-07-26T10:59:08.968Z,48.70
2022-07-26T11:01:41.710Z,48.50
2022-07-26T11:04:22.561Z,49.00
2022-07-26T11:06:50.260Z,48.60
2022-07-26T11:09:21.395Z,49.00
2022-07-26T11:11:51.790Z,49.10
2022-07-26T11:14:19.757Z,48.40
2022-07-26T11:16:50.122Z,49.30
2022-07-26T11:19:20.346Z,48.20
2022-07-26T11:22:01.449Z,48.20
2022-07-26T11:24:29.355Z,48.90
2022-07-26T11:27:03.281Z,48.50
2022-07-26T11:29:39.024Z,49.40
2022-07-26T11:32:22.210Z,49.00
2022-07-26T11:35:04.857Z,48.40
2022-07-26T11:37:32.398Z,49.60
2022-07-26T11:39:59.983Z,49.20
2022-07-26T11:42:27.566Z,50.00
2022-07-26T11:44:55.237Z,50.80
2022-07-26T11:47:26.512Z,50.90
2022-07-26T11:50:14.363Z,49.70
2022-07-26T11:52:42.737Z,49.90
2022-07-26T11:55:10.347Z,50.50
2022-07-26T11:57:38.371Z,50.60
2022-07-26T12:00:06.970Z,50.50
2022-07-26T12:02:40.618Z,50.60
2022-07-26T12:05:20.308Z,51.00
2022-07-26T12:07:55.977Z,52.30
2022-07-26T12:10:24.326Z,52.10
2022-07-26T12:13:16.069Z,51.90
2022-07-26T12:15:45.505Z,51.80
2022-07-26T12:18:25.588Z,51.70
2022-07-26T12:21:05.080Z,51.40
2022-07-26T12:23:46.471Z,51.90
2022-07-26T12:26:25.593Z,51.40
2022-07-26T12:28:54.458Z,52.00
2022-07-26T12:31:30.954Z,52.50
2022-07-26T12:33:58.883Z,53.00
2022-07-26T12:36:29.474Z,53.80
2022-07-26T12:39:01.227Z,53.30
2022-07-26T12:41:36.961Z,53.30
2022-07-26T12:44:12.497Z,54.10
2022-07-26T12:46:40.918Z,53.70
2022-07-26T12:49:08.778Z,54.90
2022-07-26T12:51:36.905Z,55.00
2022-07-26T12:54:06.444Z,55.50
2022-07-26T12:56:34.506Z,56.30
2022-07-26T12:59:02.257Z,56.80
2022-07-26T13:01:31.447Z,57.80
2022-07-26T13:04:00.909Z,58.30
2022-07-26T13:06:28.785Z,58.80
2022-07-26T13:08:56.642Z,59.10
2022-07-26T13:11:25.000Z,59.70
2022-07-26T13:13:54.610Z,60.10
2022-07-26T13:16:22.254Z,60.50
2022-07-26T13:18:49.832Z,60.70
2022-07-26T13:21:17.790Z,61.40
2022-07-26T13:23:45.400Z,62.00
2022-07-26T13:26:14.034Z,62.70
2022-07-26T13:28:42.210Z,63.60
2022-07-26T13:31:10.089Z,67.20
2022-07-26T13:33:39.558Z,69.60
2022-07-26T13:36:07.263Z,71.50
2022-07-26T13:38:35.237Z,72.40
2022-07-26T13:41:03.463Z,73.30
2022-07-26T13:43:31.547Z,74.40
2022-07-26T13:45:59.316Z,75.70
2022-07-26T13:48:27.083Z,76.30
2022-07-26T13:50:55.403Z,76.60
2022-07-26T13:53:24.063Z,77.20
2022-07-26T13:55:51.796Z,77.90
2022-07-26T13:58:21.730Z,78.30
2022-07-26T14:00:49.803Z,79.10
2022-07-26T14:03:17.574Z,79.40
2022-07-26T14:05:45.336Z,80.00
2022-07-26T14:08:13.029Z,79.90
2022-07-26T14:10:40.865Z,80.10
2022-07-26T14:13:11.039Z,80.30
2022-07-26T14:15:38.789Z,80.90
2022-07-26T14:18:06.575Z,81.10
2022-07-26T14:20:34.207Z,80.90
2022-07-26T14:23:01.804Z,81.40
2022-07-26T14:25:29.382Z,82.00
2022-07-26T14:28:00.790Z,82.50
2022-07-26T14:30:28.459Z,82.30
2022-07-26T14:32:56.111Z,82.60
2022-07-26T14:35:23.789Z,83.00
2022-07-26T14:37:51.301Z,82.70
2022-07-26T14:40:18.901Z,82.40
2022-07-26T14:42:46.703Z,82.40
2022-07-26T14:45:15.059Z,82.50
2022-07-26T14:47:43.055Z,82.60
2022-07-26T14:50:13.577Z,82.80
2022-07-26T14:52:44.576Z,82.30
2022-07-26T14:55:13.522Z,83.00
2022-07-26T14:57:41.820Z,82.20
2022-07-26T15:00:12.618Z,82.00
2022-07-26T15:02:41.999Z,82.20
2022-07-26T15:05:11.035Z,82.20
2022-07-26T15:07:40.156Z,82.40
2022-07-26T15:10:10.438Z,82.00
2022-07-26T15:12:38.819Z,82.00
2022-07-26T15:15:07.920Z,82.10
2022-07-26T15:17:36.111Z,81.90
2022-07-26T15:20:05.336Z,82.20
2022-07-26T15:22:33.148Z,82.20
2022-07-26T15:25:00.735Z,82.80
2022-07-26T15:27:28.223Z,82.60
2022-07-26T15:30:01.048Z,82.50
2022-07-26T15:32:31.772Z,82.50
2022-07-26T15:34:59.422Z,82.20
2022-07-26T15:37:27.626Z,82.60
2022-07-26T15:39:55.267Z,82.50
2022-07-26T15:42:23.369Z,82.80
2022-07-26T15:44:51.340Z,82.90
2022-07-26T15:47:52.381Z,82.50
2022-07-26T15:50:10.187Z,82.80
2022-07-26T15:52:39.850Z,82.80
2022-07-26T15:55:09.065Z,83.40
2022-07-26T15:57:36.940Z,82.50
2022-07-26T16:00:11.681Z,82.50
2022-07-26T16:02:40.925Z,83.50
2022-07-26T16:05:09.719Z,82.40
2022-07-26T16:07:38.191Z,82.50
2022-07-26T16:10:06.234Z,82.40
2022-07-26T16:12:34.219Z,82.40
2022-07-26T16:15:01.836Z,81.90
2022-07-26T16:17:29.388Z,81.80
2022-07-26T16:19:56.957Z,81.10
2022-07-26T16:22:24.759Z,80.60
2022-07-26T16:24:52.327Z,80.50
2022-07-26T16:27:19.903Z,81.20
2022-07-26T16:29:51.988Z,81.20
2022-07-26T16:32:21.570Z,80.10
2022-07-26T16:34:49.290Z,80.20
2022-07-26T16:37:16.784Z,80.20
2022-07-26T16:39:44.329Z,80.60
2022-07-26T16:42:11.796Z,80.90
2022-07-26T16:44:39.428Z,80.30
2022-07-26T16:47:07.224Z,81.10
2022-07-26T16:49:34.857Z,80.90
2022-07-26T16:52:02.349Z,80.20
2022-07-26T16:54:30.027Z,80.20
2022-07-26T16:56:57.658Z,80.60
2022-07-26T16:59:25.688Z,80.80
2022-07-26T17:01:53.275Z,81.30
2022-07-26T17:04:21.444Z,80.80
2022-07-26T17:07:14.528Z,81.00
2022-07-26T17:09:36.907Z,81.30
2022-07-26T17:12:06.726Z,81.70
2022-07-26T17:14:37.674Z,82.00
2022-07-26T17:17:05.478Z,82.20
2022-07-26T17:19:32.992Z,82.30
2022-07-26T17:22:00.539Z,82.40
2022-07-26T17:24:28.033Z,84.90
2022-07-26T17:26:57.220Z,84.60
2022-07-26T17:29:24.704Z,84.50
2022-07-26T17:31:52.882Z,85.00
2022-07-26T17:34:20.960Z,83.90
2022-07-26T17:36:56.066Z,83.00
2022-07-26T17:39:28.353Z,83.30
2022-07-26T17:42:14.859Z,83.70
2022-07-26T17:44:42.650Z,83.50
2022-07-26T17:47:18.211Z,83.60
2022-07-26T17:52:53.677Z,83.90
2022-07-26T17:55:21.671Z,84.20
2022-07-26T17:57:50.446Z,84.20
2022-07-26T18:00:20.273Z,84.30
2022-07-26T18:02:50.364Z,84.40
2022-07-26T18:05:19.605Z,84.80
2022-07-26T18:07:47.343Z,84.50
2022-07-26T18:10:14.900Z,85.50
2022-07-26T18:12:42.740Z,85.70
2022-07-26T18:15:10.630Z,85.40
2022-07-26T18:17:38.404Z,85.10
2022-07-26T18:20:07.460Z,85.10
2022-07-26T18:22:35.007Z,84.50
2022-07-26T18:25:03.897Z,84.50
2022-07-26T18:27:31.658Z,84.70
2022-07-26T18:30:00.529Z,84.60
2022-07-26T18:32:28.389Z,84.40
2022-07-26T18:34:56.142Z,84.10
2022-07-26T18:37:23.646Z,84.10
2022-07-26T18:39:56.997Z,84.10
2022-07-26T18:42:25.908Z,84.00
2022-07-26T18:44:53.478Z,84.00
2022-07-26T18:47:21.093Z,84.20
2022-07-26T18:49:48.676Z,84.00
2022-07-26T18:52:18.043Z,84.00
2022-07-26T18:55:00.958Z,84.00
2022-07-26T18:57:28.754Z,84.20
2022-07-26T18:59:56.373Z,84.70
2022-07-26T19:02:26.935Z,84.20
2022-07-26T19:04:54.541Z,84.20
2022-07-26T19:07:23.571Z,84.00
2022-07-26T19:09:55.044Z,84.30
2022-07-26T19:12:27.598Z,84.30
2022-07-26T19:14:55.287Z,84.00
2022-07-26T19:17:23.118Z,84.00
2022-07-26T19:19:50.625Z,84.00
2022-07-26T19:22:18.302Z,84.10
2022-07-26T19:24:45.979Z,84.10
2022-07-26T19:27:15.042Z,84.00
2022-07-26T19:29:42.789Z,83.90
2022-07-26T19:32:10.369Z,83.80
2022-07-26T19:34:38.634Z,84.00
2022-07-26T19:37:06.404Z,84.00
2022-07-26T19:39:34.097Z,83.70
2022-07-26T19:42:01.716Z,84.00
2022-07-26T19:44:29.333Z,83.70
2022-07-26T19:46:58.015Z,83.80
2022-07-26T19:49:25.767Z,83.70
2022-07-26T19:51:53.402Z,83.60
2022-07-26T19:54:21.447Z,83.80
2022-07-26T19:56:49.173Z,83.80
2022-07-26T19:59:22.680Z,83.60
2022-07-26T20:01:53.058Z,84.00
2022-07-26T20:04:21.591Z,84.30
2022-07-26T20:06:50.010Z,84.60
2022-07-26T20:09:17.488Z,84.10
2022-07-26T20:11:50.671Z,84.00
2022-07-26T20:14:19.664Z,83.70
2022-07-26T20:16:52.928Z,84.00
2022-07-26T20:19:24.462Z,84.20
2022-07-26T20:21:51.985Z,84.70
2022-07-26T20:24:19.820Z,84.30
2022-07-26T20:26:47.782Z,84.30
2022-07-26T20:29:15.632Z,84.30
2022-07-26T20:31:43.735Z,84.40
2022-07-26T20:34:11.751Z,84.70
2022-07-26T20:36:39.380Z,84.80
2022-07-26T20:39:06.878Z,85.00
2022-07-26T20:41:34.588Z,84.70
2022-07-26T20:44:02.227Z,85.00
2022-07-26T20:46:29.973Z,85.00
2022-07-26T20:48:57.715Z,84.90
2022-07-26T20:51:25.563Z,85.00
2022-07-26T20:53:53.178Z,85.10
2022-07-26T20:56:20.676Z,85.30
2022-07-26T20:58:48.210Z,85.30
2022-07-26T21:01:19.138Z,85.40
2022-07-26T21:03:46.786Z,86.00
2022-07-26T21:06:14.345Z,85.70
2022-07-26T21:08:41.923Z,85.60
2022-07-26T21:11:11.466Z,85.70
2022-07-26T21:13:39.001Z,85.70
2022-07-26T21:16:09.862Z,86.20
2022-07-26T21:18:38.376Z,86.00
2022-07-26T21:21:06.166Z,86.80
2022-07-26T21:23:34.075Z,86.40
2022-07-26T21:26:01.739Z,86.80
2022-07-26T21:28:29.357Z,87.60
2022-07-26T21:30:56.982Z,86.60
2022-07-26T21:33:24.522Z,86.90
2022-07-26T21:35:52.106Z,87.40
2022-07-26T21:38:19.788Z,87.10
2022-07-26T21:40:47.594Z,87.10
2022-07-26T21:43:15.210Z,87.00
2022-07-26T21:45:42.827Z,86.80
2022-07-26T21:48:10.631Z,86.50
2022-07-26T21:50:38.176Z,86.40
2022-07-26T21:53:05.707Z,85.90
2022-07-26T21:55:33.210Z,85.90
2022-07-26T21:58:00.827Z,85.10
2022-07-26T22:00:28.487Z,84.90
2022-07-26T22:02:56.089Z,84.80
2022-07-26T22:05:35.619Z,85.20
2022-07-26T22:08:03.706Z,85.90
2022-07-26T22:10:33.473Z,85.40
2022-07-26T22:13:02.605Z,85.50
2022-07-26T22:15:31.022Z,85.60
2022-07-26T22:18:00.673Z,85.80
2022-07-26T22:20:32.402Z,86.20
2022-07-26T22:23:11.387Z,85.80
2022-07-26T22:25:39.820Z,86.00
2022-07-26T22:28:09.500Z,86.10
2022-07-26T22:30:37.870Z,86.30
2022-07-26T22:33:08.155Z,86.20
2022-07-26T22:35:36.503Z,86.10
2022-07-26T22:38:07.313Z,86.20
2022-07-26T22:40:35.867Z,86.40
2022-07-26T22:43:04.139Z,86.40
2022-07-26T22:45:32.009Z,86.50
2022-07-26T22:48:01.266Z,86.50
2022-07-26T22:50:29.604Z,86.70
2022-07-26T22:52:57.231Z,86.80
2022-07-26T22:55:24.913Z,86.60
2022-07-26T22:57:52.424Z,86.30
2022-07-26T23:00:21.115Z,86.30
2022-07-26T23:02:49.137Z,86.30
2022-07-26T23:05:16.741Z,86.40
2022-07-26T23:07:47.813Z,86.60
2022-07-26T23:10:17.090Z,86.90
2022-07-26T23:12:45.136Z,86.80
2022-07-26T23:15:12.986Z,87.10
2022-07-26T23:17:40.919Z,86.80
2022-07-26T23:20:09.700Z,86.80
2022-07-26T23:22:38.265Z,86.80
2022-07-26T23:25:06.627Z,87.00
2022-07-26T23:27:34.224Z,86.60
2022-07-26T23:30:01.843Z,86.60
2022-07-26T23:32:29.360Z,86.60
2022-07-26T23:34:56.983Z,86.70
2022-07-26T23:37:24.473Z,86.90
2022-07-26T23:39:51.974Z,86.90
2022-07-26T23:42:19.522Z,87.00
2022-07-26T23:44:47.085Z,86.40
2022-07-26T23:47:14.682Z,87.10
2022-07-26T23:49:42.329Z,87.00
2022-07-26T23:52:10.020Z,87.10
2022-07-26T23:54:37.995Z,87.10
2022-07-26T23:57:05.574Z,87.10
2022-07-26T23:59:33.045Z,87.10
